Loncopue, Argentina
Current Conditions -  °F | °C
As of 1:00 PM on Thursday 30 Oct 2014 (Local Time) from SCQP Reporting Station
Broken Clouds Broken Clouds  
Wind Chill: 54°   Ceiling: 4600
Heat Index: 54°   Visibility: 6mi
Dew Point: 41°   Wind: 12mph
Humidity: 62%   Direction: 270°W
Pressure: 30.12"   Gusts: NA
Location:  38.07°S, 70.62°W
Report Text: SCQP 301600Z 27010KT 240V300 9999 BKN046 12/05 Q1020
Loading
Personal Weather Stations






























Interactive Weather Map
Tropical Storm Tracking
New forecast layout! Learn more

10-Day Weather Forecast

Advertisements
Track Severe Weather on mobile